createdAt,value
2018-03-02T00:00:19.840Z,26.70
2018-03-02T00:02:47.406Z,20.40
2018-03-02T00:05:14.991Z,28.92
2018-03-02T00:07:42.552Z,23.87
2018-03-02T00:10:10.180Z,22.98
2018-03-02T00:12:37.741Z,26.37
2018-03-02T00:15:05.270Z,22.67
2018-03-02T00:17:33.669Z,19.45
2018-03-02T00:20:01.347Z,20.02
2018-03-02T00:22:29.045Z,24.95
2018-03-02T00:24:56.638Z,32.45
2018-03-02T00:27:24.362Z,22.77
2018-03-02T00:29:51.927Z,23.98
2018-03-02T00:32:19.496Z,26.25
2018-03-02T00:34:47.061Z,24.23
2018-03-02T00:37:14.708Z,25.73
2018-03-02T00:39:42.295Z,25.48
2018-03-02T00:42:10.698Z,23.17
2018-03-02T00:44:38.250Z,28.27
2018-03-02T00:47:07.393Z,27.13
2018-03-02T00:49:34.917Z,33.45
2018-03-02T00:52:02.489Z,24.55
2018-03-02T00:54:30.284Z,20.48
2018-03-02T00:56:57.842Z,30.33
2018-03-02T00:59:25.381Z,30.45
2018-03-02T01:01:52.922Z,25.80
2018-03-02T01:04:20.476Z,26.37
2018-03-02T01:06:48.044Z,24.85
2018-03-02T01:09:15.623Z,25.70
2018-03-02T01:11:43.234Z,24.80
2018-03-02T01:14:10.812Z,24.77
2018-03-02T01:16:39.204Z,32.03
2018-03-02T01:19:06.747Z,24.17
2018-03-02T01:21:35.126Z,33.30
2018-03-02T01:24:03.490Z,24.87
2018-03-02T01:26:31.877Z,29.23
2018-03-02T01:29:00.933Z,24.17
2018-03-02T01:31:28.570Z,24.00
2018-03-02T01:33:56.153Z,41.03
2018-03-02T01:36:23.723Z,34.00
2018-03-02T01:38:51.285Z,32.10
2018-03-02T01:41:18.869Z,26.52
2018-03-02T01:43:47.213Z,31.62
2018-03-02T01:46:14.805Z,27.92
2018-03-02T01:48:42.422Z,23.95
2018-03-02T01:51:09.939Z,35.70
2018-03-02T01:53:38.515Z,26.73
2018-03-02T01:56:06.823Z,26.48
2018-03-02T01:58:34.652Z,30.15
2018-03-02T02:01:03.004Z,35.90
2018-03-02T02:03:30.598Z,35.03
2018-03-02T02:05:58.196Z,24.37
2018-03-02T02:08:25.746Z,34.55
2018-03-02T02:10:53.320Z,29.83
2018-03-02T02:13:21.769Z,32.88
2018-03-02T02:15:50.935Z,32.75
2018-03-02T02:18:18.520Z,28.83
2018-03-02T02:20:46.816Z,37.70
2018-03-02T02:23:14.349Z,31.33
2018-03-02T02:25:42.647Z,45.90
2018-03-02T02:28:10.857Z,30.05
2018-03-02T02:30:38.442Z,38.97
2018-03-02T02:33:06.083Z,31.15
2018-03-02T02:35:34.389Z,22.48
2018-03-02T02:38:01.967Z,41.78
2018-03-02T02:40:30.293Z,37.05
2018-03-02T02:42:57.905Z,30.73
2018-03-02T02:45:25.547Z,27.87
2018-03-02T02:47:53.101Z,43.08
2018-03-02T02:50:20.713Z,37.80
2018-03-02T02:52:48.255Z,37.47
2018-03-02T02:55:16.704Z,34.50
2018-03-02T02:57:44.218Z,34.78
2018-03-02T03:00:11.779Z,30.00
2018-03-02T03:02:39.324Z,37.42
2018-03-02T03:05:06.924Z,40.20
2018-03-02T03:07:35.941Z,42.17
2018-03-02T03:10:03.507Z,25.52
2018-03-02T03:12:31.836Z,35.88
2018-03-02T03:14:59.606Z,39.40
2018-03-02T03:17:27.140Z,33.55
2018-03-02T03:19:54.695Z,34.90
2018-03-02T03:22:22.208Z,36.92
2018-03-02T03:24:49.779Z,30.10
2018-03-02T03:27:17.375Z,41.42
2018-03-02T03:29:44.960Z,35.13
2018-03-02T03:32:12.588Z,45.15
2018-03-02T03:34:40.135Z,27.80
2018-03-02T03:37:08.486Z,35.35
2018-03-02T03:39:36.077Z,33.25
2018-03-02T03:42:03.992Z,51.15
2018-03-02T03:44:31.590Z,46.65
2018-03-02T03:46:59.949Z,32.75
2018-03-02T03:49:27.505Z,27.20
2018-03-02T03:51:55.115Z,35.08
2018-03-02T03:54:22.709Z,32.17
2018-03-02T03:56:50.316Z,38.00
2018-03-02T03:59:17.902Z,46.47
2018-03-02T04:01:45.484Z,37.42
2018-03-02T04:04:13.654Z,27.92
2018-03-02T04:06:41.308Z,30.45
2018-03-02T04:09:09.892Z,33.88
2018-03-02T04:11:38.256Z,37.20
2018-03-02T04:14:05.851Z,24.90
2018-03-02T04:16:33.452Z,47.55
2018-03-02T04:19:01.072Z,54.33
2018-03-02T04:21:29.469Z,36.65
2018-03-02T04:23:57.017Z,38.97
2018-03-02T04:26:24.614Z,50.10
2018-03-02T04:28:52.967Z,31.67
2018-03-02T04:31:20.542Z,46.35
2018-03-02T04:33:48.136Z,41.97
2018-03-02T04:36:15.701Z,37.95
2018-03-02T04:38:43.346Z,31.55
2018-03-02T04:41:12.307Z,40.20
2018-03-02T04:43:39.860Z,41.40
2018-03-02T04:46:07.897Z,25.95
2018-03-02T04:48:35.482Z,43.83
2018-03-02T04:51:03.030Z,42.15
2018-03-02T04:53:30.573Z,30.75
2018-03-02T04:55:58.153Z,47.90
2018-03-02T04:58:25.773Z,35.95
2018-03-02T05:00:53.543Z,34.00
2018-03-02T05:03:21.150Z,41.17
2018-03-02T05:05:48.710Z,47.08
2018-03-02T05:08:17.096Z,39.67
2018-03-02T05:10:44.738Z,41.75
2018-03-02T05:13:12.348Z,37.90
2018-03-02T05:15:39.913Z,39.80
2018-03-02T05:18:08.967Z,45.42
2018-03-02T05:20:36.553Z,32.38
2018-03-02T05:23:04.149Z,47.65
2018-03-02T05:25:31.718Z,44.15
2018-03-02T05:27:59.371Z,46.40
2018-03-02T05:30:26.935Z,40.47
2018-03-02T05:32:54.448Z,44.35
2018-03-02T05:35:22.002Z,39.75
2018-03-02T05:37:49.533Z,24.80
2018-03-02T05:40:17.081Z,43.75
2018-03-02T05:42:44.718Z,27.08
2018-03-02T05:45:12.419Z,44.60
2018-03-02T05:47:40.000Z,44.17
2018-03-02T05:50:07.646Z,32.08
2018-03-02T05:52:35.246Z,46.13
2018-03-02T05:55:03.609Z,27.23
2018-03-02T05:57:32.217Z,36.63
2018-03-02T06:00:00.625Z,38.88
2018-03-02T06:02:28.224Z,38.92
2018-03-02T06:04:55.763Z,38.88
2018-03-02T06:07:23.311Z,28.85
2018-03-02T06:09:50.907Z,31.48
2018-03-02T06:12:18.479Z,42.00
2018-03-02T06:14:46.104Z,34.65
2018-03-02T06:17:14.550Z,38.05
2018-03-02T06:19:42.089Z,42.03
2018-03-02T06:22:10.368Z,40.53
2018-03-02T06:24:38.686Z,36.45
2018-03-02T06:27:06.603Z,35.05
2018-03-02T06:29:34.532Z,31.92
2018-03-02T06:32:02.242Z,46.88
2018-03-02T06:34:29.811Z,43.92
2018-03-02T06:36:57.980Z,38.35
2018-03-02T06:39:25.552Z,27.45
2018-03-02T06:41:53.194Z,29.80
2018-03-02T06:44:20.868Z,35.50
2018-03-02T06:46:49.206Z,32.20
2018-03-02T06:49:17.563Z,44.28
2018-03-02T06:51:45.837Z,34.67
2018-03-02T06:54:14.105Z,38.45
2018-03-02T06:56:41.664Z,28.80
2018-03-02T06:59:09.242Z,30.42
2018-03-02T07:01:37.602Z,44.03
2018-03-02T07:04:05.211Z,39.47
2018-03-02T07:06:32.814Z,51.20
2018-03-02T07:09:00.391Z,33.10
2018-03-02T07:11:27.990Z,46.88
2018-03-02T07:13:55.576Z,41.13
2018-03-02T07:16:23.923Z,37.35
2018-03-02T07:18:51.513Z,26.52
2018-03-02T07:21:19.349Z,42.95
2018-03-02T07:23:47.075Z,37.25
2018-03-02T07:26:15.467Z,42.95
2018-03-02T07:28:43.030Z,37.35
2018-03-02T07:31:10.775Z,37.90
2018-03-02T07:33:38.724Z,44.75
2018-03-02T07:36:07.117Z,45.42
2018-03-02T07:38:34.759Z,52.13
2018-03-02T07:41:03.137Z,46.05
2018-03-02T07:43:31.499Z,46.22
2018-03-02T07:45:59.902Z,51.47
2018-03-02T07:48:28.264Z,48.10
2018-03-02T07:50:56.658Z,54.15
2018-03-02T07:53:24.338Z,43.38
2018-03-02T07:55:51.975Z,35.90
2018-03-02T07:58:20.290Z,48.60
2018-03-02T08:00:47.852Z,43.35
2018-03-02T08:03:17.337Z,56.15
2018-03-02T08:05:45.099Z,44.95
2018-03-02T08:08:13.393Z,52.90
2018-03-02T08:10:40.928Z,65.07
2018-03-02T08:13:09.313Z,32.95
2018-03-02T08:15:36.851Z,40.47
2018-03-02T08:18:04.501Z,48.50
2018-03-02T08:20:32.125Z,46.95
2018-03-02T08:22:59.678Z,49.40
2018-03-02T08:25:27.285Z,31.02
2018-03-02T08:27:55.084Z,49.80
2018-03-02T08:30:23.389Z,44.60
2018-03-02T08:32:50.972Z,48.38
2018-03-02T08:35:18.612Z,58.55
2018-03-02T08:37:46.207Z,44.00
2018-03-02T08:40:13.772Z,45.35
2018-03-02T08:42:41.389Z,40.10
2018-03-02T08:45:08.945Z,47.70
2018-03-02T08:47:37.355Z,57.17
2018-03-02T08:50:04.910Z,50.88
2018-03-02T08:52:32.599Z,45.63
2018-03-02T08:55:00.216Z,49.22
2018-03-02T08:57:27.825Z,37.90
2018-03-02T08:59:56.159Z,39.50
2018-03-02T09:02:23.820Z,44.05
2018-03-02T09:04:51.447Z,48.28
2018-03-02T09:07:19.052Z,47.40
2018-03-02T09:09:46.623Z,39.40
2018-03-02T09:12:14.493Z,56.35
2018-03-02T09:14:42.102Z,52.45
2018-03-02T09:17:10.534Z,41.05
2018-03-02T09:19:38.705Z,42.03
2018-03-02T09:22:06.289Z,55.53
2018-03-02T09:24:34.623Z,49.33
2018-03-02T09:27:02.704Z,30.40
2018-03-02T09:29:30.219Z,40.80
2018-03-02T09:31:57.796Z,47.45
2018-03-02T09:34:25.322Z,49.90
2018-03-02T09:36:53.669Z,47.28
2018-03-02T09:39:21.300Z,43.25
2018-03-02T09:41:48.958Z,62.17
2018-03-02T09:44:16.540Z,40.95
2018-03-02T09:46:44.116Z,50.58
2018-03-02T09:49:11.711Z,31.73
2018-03-02T09:51:39.493Z,39.03
2018-03-02T09:54:07.050Z,61.80
2018-03-02T09:56:34.610Z,45.05
2018-03-02T09:59:02.159Z,63.40
2018-03-02T10:01:30.468Z,54.85
2018-03-02T10:03:58.060Z,47.90
2018-03-02T10:06:25.625Z,48.92
2018-03-02T10:08:53.173Z,51.40
2018-03-02T10:11:20.754Z,46.65
2018-03-02T10:13:49.128Z,47.80
2018-03-02T10:16:16.720Z,48.50
2018-03-02T10:18:44.314Z,49.35
2018-03-02T10:21:11.851Z,37.72
2018-03-02T10:23:39.410Z,54.20
2018-03-02T10:26:06.957Z,29.80
2018-03-02T10:28:34.532Z,54.63
2018-03-02T10:31:02.180Z,54.28
2018-03-02T10:33:29.799Z,49.50
2018-03-02T10:35:57.329Z,51.78
2018-03-02T10:38:24.990Z,48.65
2018-03-02T10:40:52.588Z,48.05
2018-03-02T10:43:20.917Z,59.10
2018-03-02T10:45:48.465Z,55.65
2018-03-02T10:48:16.887Z,46.83
2018-03-02T10:50:44.789Z,39.85
2018-03-02T10:53:13.101Z,43.95
2018-03-02T10:55:40.720Z,48.50
2018-03-02T10:58:08.953Z,53.78
2018-03-02T11:00:42.328Z,49.67
2018-03-02T11:03:15.650Z,44.25
2018-03-02T11:05:46.110Z,47.95
2018-03-02T11:08:13.690Z,43.33
2018-03-02T11:10:42.006Z,53.70
2018-03-02T11:13:09.645Z,46.20
2018-03-02T11:15:37.271Z,57.85
2018-03-02T11:18:04.832Z,46.20
2018-03-02T11:20:32.421Z,51.67
2018-03-02T11:22:59.979Z,49.47
2018-03-02T11:25:27.592Z,36.03
2018-03-02T11:27:55.729Z,51.95
2018-03-02T11:30:23.373Z,49.10
2018-03-02T11:32:51.040Z,41.22
2018-03-02T11:35:18.676Z,41.50
2018-03-02T11:37:46.335Z,37.65
2018-03-02T11:40:13.869Z,44.25
2018-03-02T11:42:41.433Z,46.30
2018-03-02T11:45:09.095Z,51.20
2018-03-02T11:47:36.708Z,54.17
2018-03-02T11:50:04.295Z,53.13
2018-03-02T11:52:32.131Z,43.10
2018-03-02T11:54:59.783Z,48.65
2018-03-02T11:57:28.229Z,51.83
2018-03-02T11:59:55.826Z,41.95
2018-03-02T12:02:24.155Z,56.10
2018-03-02T12:04:51.721Z,52.38
2018-03-02T12:07:19.328Z,52.67
2018-03-02T12:09:47.731Z,53.83
2018-03-02T12:12:15.329Z,55.05
2018-03-02T12:14:42.971Z,35.67
2018-03-02T12:17:10.570Z,47.28
2018-03-02T12:19:39.771Z,54.00
2018-03-02T12:22:07.344Z,60.35
2018-03-02T12:24:35.747Z,55.55
2018-03-02T12:27:03.546Z,61.78
2018-03-02T12:29:31.139Z,46.83
2018-03-02T12:31:58.762Z,47.75
2018-03-02T12:34:26.353Z,43.35
2018-03-02T12:36:54.025Z,37.70
2018-03-02T12:39:21.625Z,46.53
2018-03-02T12:41:49.173Z,42.72
2018-03-02T12:44:16.755Z,40.55
2018-03-02T12:46:44.341Z,40.40
2018-03-02T12:49:12.172Z,54.60
2018-03-02T12:51:39.795Z,56.17
2018-03-02T12:54:07.354Z,59.67
2018-03-02T12:56:34.898Z,61.05
2018-03-02T12:59:02.465Z,60.92
2018-03-02T13:01:30.060Z,50.80
2018-03-02T13:03:57.646Z,60.10
2018-03-02T13:06:25.186Z,55.28
2018-03-02T13:08:52.800Z,50.95
2018-03-02T13:11:20.499Z,48.30
2018-03-02T13:13:48.961Z,54.08
2018-03-02T13:16:17.291Z,47.22
2018-03-02T13:18:45.103Z,50.70
2018-03-02T13:21:13.483Z,50.53
2018-03-02T13:23:42.148Z,42.28
2018-03-02T13:26:09.711Z,49.75
2018-03-02T13:28:46.122Z,61.05
2018-03-02T13:31:14.058Z,53.67
2018-03-02T13:33:53.572Z,59.88
2018-03-02T13:36:21.471Z,58.70
2018-03-02T13:38:49.328Z,50.53
2018-03-02T13:41:29.530Z,51.67
2018-03-02T13:43:57.156Z,52.55
2018-03-02T13:46:24.742Z,55.50
2018-03-02T13:49:04.530Z,56.65
2018-03-02T13:51:32.119Z,53.30
2018-03-02T13:54:00.768Z,59.58
2018-03-02T13:56:40.084Z,57.90
2018-03-02T13:59:07.732Z,54.28
2018-03-02T14:01:35.392Z,55.60
2018-03-02T14:04:14.941Z,58.03
2018-03-02T14:06:43.307Z,50.22
2018-03-02T14:09:10.988Z,62.03
2018-03-02T14:11:38.627Z,58.25
2018-03-02T14:14:07.885Z,56.75
2018-03-02T14:16:35.460Z,59.25
2018-03-02T14:19:03.045Z,63.10
2018-03-02T14:21:30.661Z,49.13
2018-03-02T14:23:58.268Z,58.05
2018-03-02T14:26:27.272Z,60.30
2018-03-02T14:28:54.839Z,55.88
2018-03-02T14:31:22.470Z,68.72
2018-03-02T14:33:50.146Z,51.25
2018-03-02T14:36:17.712Z,53.10
2018-03-02T14:38:45.285Z,64.62
2018-03-02T14:41:12.945Z,62.38
2018-03-02T14:43:41.587Z,63.05
2018-03-02T14:46:09.188Z,61.00
2018-03-02T14:48:36.741Z,55.70
2018-03-02T14:51:04.341Z,57.45
2018-03-02T14:53:31.890Z,59.10
2018-03-02T14:55:59.458Z,45.72
2018-03-02T14:58:26.999Z,56.53
2018-03-02T15:00:54.670Z,64.03
2018-03-02T15:03:22.313Z,61.15
2018-03-02T15:05:49.895Z,70.45
2018-03-02T15:08:17.869Z,61.10
2018-03-02T15:10:46.309Z,54.75
2018-03-02T15:13:13.826Z,63.92
2018-03-02T15:15:41.381Z,64.75
2018-03-02T15:18:08.970Z,39.58
2018-03-02T15:20:37.334Z,58.90
2018-03-02T15:23:04.911Z,71.05
2018-03-02T15:25:32.476Z,46.63
2018-03-02T15:28:00.078Z,51.92
2018-03-02T15:30:27.740Z,52.45
2018-03-02T15:32:55.332Z,59.50
2018-03-02T15:35:22.980Z,67.55
2018-03-02T15:37:50.565Z,58.00
2018-03-02T15:40:18.206Z,57.78
2018-03-02T15:42:46.444Z,71.40
2018-03-02T15:45:14.742Z,61.03
2018-03-02T15:47:42.410Z,55.92
2018-03-02T15:50:09.972Z,55.40
2018-03-02T15:52:37.627Z,62.78
2018-03-02T15:55:05.771Z,55.35
2018-03-02T15:57:33.332Z,50.08
2018-03-02T16:00:01.174Z,72.55
2018-03-02T16:02:28.764Z,61.92
2018-03-02T16:04:56.297Z,67.72
2018-03-02T16:07:25.732Z,68.53
2018-03-02T16:09:53.286Z,63.30
2018-03-02T16:12:20.862Z,58.42
2018-03-02T16:14:48.478Z,56.25
2018-03-02T16:17:16.153Z,65.05
2018-03-02T16:19:43.749Z,63.87
2018-03-02T16:22:11.572Z,53.75
2018-03-02T16:24:40.103Z,58.17
2018-03-02T16:27:07.631Z,57.05
2018-03-02T16:29:35.993Z,55.90
2018-03-02T16:32:03.619Z,53.85
2018-03-02T16:34:32.394Z,61.13
2018-03-02T16:36:59.959Z,53.60
2018-03-02T16:39:27.504Z,56.83
2018-03-02T16:41:55.061Z,53.97
2018-03-02T16:44:22.636Z,55.60
2018-03-02T16:46:50.379Z,60.75
2018-03-02T16:49:18.050Z,64.70
2018-03-02T16:51:46.428Z,56.97
2018-03-02T16:54:13.988Z,51.50
2018-03-02T16:56:41.504Z,51.80
2018-03-02T16:59:09.577Z,54.05
2018-03-02T17:01:37.131Z,58.72
2018-03-02T17:04:04.742Z,57.03
2018-03-02T17:06:32.333Z,63.00
2018-03-02T17:08:59.977Z,62.13
2018-03-02T17:11:27.537Z,74.72
2018-03-02T17:13:55.092Z,62.42
2018-03-02T17:16:22.696Z,60.05
2018-03-02T17:18:50.450Z,55.03
2018-03-02T17:21:17.985Z,62.17
2018-03-02T17:23:45.550Z,58.30
2018-03-02T17:26:13.358Z,50.50
2018-03-02T17:28:41.689Z,67.78
2018-03-02T17:31:09.270Z,71.10
2018-03-02T17:33:36.872Z,74.80
2018-03-02T17:36:04.452Z,43.80
2018-03-02T17:38:31.985Z,59.25
2018-03-02T17:41:00.397Z,50.90
2018-03-02T17:43:27.949Z,60.90
2018-03-02T17:45:55.587Z,79.10
2018-03-02T17:48:23.994Z,71.60
2018-03-02T17:50:52.270Z,61.83
2018-03-02T17:53:20.637Z,69.47
2018-03-02T17:55:49.140Z,72.15
2018-03-02T17:58:17.189Z,62.42
2018-03-02T18:00:44.736Z,64.68
2018-03-02T18:03:13.045Z,74.80
2018-03-02T18:05:40.858Z,64.85
2018-03-02T18:08:08.360Z,64.12
2018-03-02T18:10:36.876Z,71.45
2018-03-02T18:13:04.454Z,74.18
2018-03-02T18:15:32.067Z,60.20
2018-03-02T18:17:59.670Z,60.05
2018-03-02T18:20:27.256Z,59.55
2018-03-02T18:22:55.614Z,70.25
2018-03-02T18:25:24.198Z,85.45
2018-03-02T18:27:52.497Z,60.25
2018-03-02T18:30:20.809Z,70.07
2018-03-02T18:32:48.362Z,57.88
2018-03-02T18:35:15.992Z,73.05
2018-03-02T18:37:44.471Z,64.30
2018-03-02T18:40:12.786Z,62.72
2018-03-02T18:42:40.342Z,63.63
2018-03-02T18:45:07.968Z,57.75
2018-03-02T18:47:35.552Z,68.18
2018-03-02T18:50:03.138Z,72.45
2018-03-02T18:52:34.785Z,75.28
2018-03-02T18:55:02.375Z,59.58
2018-03-02T18:57:29.961Z,67.72
2018-03-02T18:59:57.487Z,63.53
2018-03-02T19:02:25.021Z,63.50
2018-03-02T19:04:52.583Z,71.22
2018-03-02T19:07:20.140Z,63.58
2018-03-02T19:09:47.698Z,71.10
2018-03-02T19:12:15.260Z,73.62
2018-03-02T19:14:43.060Z,72.10
2018-03-02T19:17:11.620Z,60.30
2018-03-02T19:19:39.223Z,58.33
2018-03-02T19:22:06.760Z,66.28
2018-03-02T19:24:34.320Z,80.05
2018-03-02T19:27:01.893Z,62.33
2018-03-02T19:29:29.622Z,71.65
2018-03-02T19:31:57.294Z,70.72
2018-03-02T19:34:24.933Z,61.25
2018-03-02T19:36:58.155Z,60.28
2018-03-02T19:39:25.751Z,74.03
2018-03-02T19:41:55.508Z,79.37
2018-03-02T19:44:23.516Z,62.45
2018-03-02T19:46:51.183Z,73.65
2018-03-02T19:49:19.118Z,70.43
2018-03-02T19:51:46.797Z,73.05
2018-03-02T19:54:15.269Z,67.32
2018-03-02T19:56:42.849Z,71.72
2018-03-02T19:59:10.483Z,74.10
2018-03-02T20:01:38.113Z,68.12
2018-03-02T20:04:06.461Z,67.45
2018-03-02T20:06:34.402Z,67.30
2018-03-02T20:09:03.845Z,57.90
2018-03-02T20:11:32.525Z,76.35
2018-03-02T20:14:01.829Z,73.03
2018-03-02T20:16:31.245Z,59.75
2018-03-02T20:18:58.876Z,67.12
2018-03-02T20:21:27.247Z,64.80
2018-03-02T20:23:54.860Z,65.37
2018-03-02T20:26:22.486Z,63.42
2018-03-02T20:28:51.804Z,59.60
2018-03-02T20:31:20.713Z,76.78
2018-03-02T20:33:48.341Z,66.32
2018-03-02T20:36:16.797Z,64.97
2018-03-02T20:38:45.514Z,58.53
2018-03-02T20:41:14.221Z,62.60
2018-03-02T20:43:41.878Z,60.70
2018-03-02T20:46:10.687Z,58.90
2018-03-02T20:48:38.422Z,77.35
2018-03-02T20:51:09.108Z,80.78
2018-03-02T20:53:36.672Z,68.35
2018-03-02T20:56:04.261Z,65.05
2018-03-02T20:58:32.327Z,58.83
2018-03-02T21:00:59.890Z,71.45
2018-03-02T21:03:27.519Z,67.50
2018-03-02T21:05:55.121Z,56.03
2018-03-02T21:08:22.677Z,66.00
2018-03-02T21:10:51.096Z,61.85
2018-03-02T21:13:18.692Z,66.03
2018-03-02T21:15:46.263Z,73.55
2018-03-02T21:18:13.833Z,78.90
2018-03-02T21:20:41.367Z,74.05
2018-03-02T21:23:09.679Z,75.37
2018-03-02T21:25:37.286Z,64.25
2018-03-02T21:28:04.922Z,68.47
2018-03-02T21:30:32.616Z,53.30
2018-03-02T21:33:00.260Z,62.78
2018-03-02T21:35:27.833Z,58.35
2018-03-02T21:37:55.410Z,48.40
2018-03-02T21:40:23.069Z,63.28
2018-03-02T21:42:50.668Z,57.92
2018-03-02T21:45:18.975Z,71.30
2018-03-02T21:47:47.783Z,65.00
2018-03-02T21:50:15.364Z,66.78
2018-03-02T21:52:42.927Z,62.35
2018-03-02T21:55:10.798Z,65.55
2018-03-02T21:57:38.432Z,67.03
2018-03-02T22:00:05.961Z,64.03
2018-03-02T22:02:33.596Z,74.20
2018-03-02T22:05:01.963Z,58.92
2018-03-02T22:07:29.504Z,63.50
2018-03-02T22:09:57.082Z,53.40
2018-03-02T22:12:24.753Z,66.87
2018-03-02T22:14:52.342Z,72.20
2018-03-02T22:17:20.977Z,69.62
2018-03-02T22:19:48.673Z,61.22
2018-03-02T22:22:16.510Z,59.88
2018-03-02T22:24:44.360Z,53.00
2018-03-02T22:27:11.934Z,76.97
2018-03-02T22:29:39.885Z,73.22
2018-03-02T22:32:08.136Z,73.22
2018-03-02T22:34:35.778Z,74.80
2018-03-02T22:37:03.468Z,75.00
2018-03-02T22:39:31.434Z,76.25
2018-03-02T22:41:59.373Z,69.20
2018-03-02T22:44:27.413Z,63.97
2018-03-02T22:46:55.401Z,59.72
2018-03-02T22:49:23.448Z,69.20
2018-03-02T22:51:51.529Z,62.45
2018-03-02T22:54:19.826Z,64.90
2018-03-02T22:56:48.251Z,69.80
2018-03-02T22:59:16.908Z,47.35
2018-03-02T23:01:45.355Z,70.87
2018-03-02T23:04:13.845Z,66.57
2018-03-02T23:06:42.036Z,69.55
2018-03-02T23:09:10.413Z,63.03
2018-03-02T23:11:39.186Z,66.78
2018-03-02T23:14:07.472Z,68.37
2018-03-02T23:16:37.059Z,78.25
2018-03-02T23:19:06.594Z,63.00
2018-03-02T23:21:35.406Z,61.60
2018-03-02T23:24:03.615Z,68.47
2018-03-02T23:26:31.673Z,69.45
2018-03-02T23:28:59.612Z,60.83
2018-03-02T23:31:27.532Z,65.03
2018-03-02T23:33:55.438Z,67.22
2018-03-02T23:36:23.576Z,67.75
2018-03-02T23:38:51.677Z,54.10
2018-03-02T23:41:19.657Z,63.13
2018-03-02T23:43:48.356Z,63.33
2018-03-02T23:46:16.371Z,68.10
2018-03-02T23:48:44.448Z,62.10
2018-03-02T23:51:12.724Z,65.62
2018-03-02T23:53:40.902Z,67.82
2018-03-02T23:56:08.871Z,54.90
2018-03-02T23:58:37.875Z,55.40
